createdAt,value
2022-10-14T00:00:26.378Z,100908.81
2022-10-14T00:02:54.015Z,100913.63
2022-10-14T00:05:22.991Z,100908.84
2022-10-14T00:07:50.653Z,100905.91
2022-10-14T00:10:18.501Z,100905.06
2022-10-14T00:12:47.336Z,100911.13
2022-10-14T00:15:15.007Z,100908.41
2022-10-14T00:17:42.748Z,100900.03
2022-10-14T00:20:10.950Z,100903.59
2022-10-14T00:22:39.985Z,100903.59
2022-10-14T00:25:08.138Z,100899.22
2022-10-14T00:27:35.806Z,100891.28
2022-10-14T00:30:03.522Z,100896.72
2022-10-14T00:32:31.989Z,100901.31
2022-10-14T00:34:59.638Z,100898.84
2022-10-14T00:37:27.318Z,100905.13
2022-10-14T00:39:57.174Z,100895.94
2022-10-14T00:42:25.518Z,100902.84
2022-10-14T00:45:01.679Z,100895.13
2022-10-14T00:47:30.517Z,100897.25
2022-10-14T00:50:00.428Z,100893.25
2022-10-14T00:52:28.861Z,100891.16
2022-10-14T00:55:02.779Z,100896.41
2022-10-14T00:57:30.832Z,100890.56
2022-10-14T01:00:03.051Z,100887.63
2022-10-14T01:02:31.636Z,100890.56
2022-10-14T01:05:00.609Z,100885.53
2022-10-14T01:07:38.152Z,100884.06
2022-10-14T01:10:15.346Z,100885.75
2022-10-14T01:12:55.605Z,100883.25
2022-10-14T01:15:31.127Z,100887.88
2022-10-14T01:18:11.979Z,100882.66
2022-10-14T01:21:08.424Z,100883.69
2022-10-14T01:24:33.109Z,100876.59
2022-10-14T01:27:18.794Z,100881.59
2022-10-14T01:30:01.879Z,100875.53
2022-10-14T01:32:32.519Z,100870.09
2022-10-14T01:35:05.925Z,100870.31
2022-10-14T01:37:37.151Z,100866.94
2022-10-14T01:40:13.154Z,100866.50
2022-10-14T01:42:44.229Z,100862.97
2022-10-14T01:45:18.822Z,100865.91
2022-10-14T01:47:51.004Z,100860.47
2022-10-14T01:50:23.430Z,100858.19
2022-10-14T01:52:55.296Z,100854.16
2022-10-14T01:55:26.569Z,100861.06
2022-10-14T01:57:58.266Z,100857.53
2022-10-14T02:00:27.434Z,100859.22
2022-10-14T02:02:55.185Z,100859.44
2022-10-14T02:05:29.437Z,100856.31
2022-10-14T02:08:04.461Z,100858.59
2022-10-14T02:10:50.543Z,100859.44
2022-10-14T02:13:35.287Z,100861.72
2022-10-14T02:16:19.053Z,100856.53
2022-10-14T02:18:52.369Z,100853.16
2022-10-14T02:21:25.585Z,100849.38
2022-10-14T02:23:58.295Z,100847.06
2022-10-14T02:26:27.945Z,100848.91
2022-10-14T02:28:57.785Z,100851.22
2022-10-14T02:31:29.544Z,100845.34
2022-10-14T02:34:01.535Z,100849.53
2022-10-14T02:36:30.559Z,100849.53
2022-10-14T02:39:01.504Z,100845.53
2022-10-14T02:41:33.562Z,100845.31
2022-10-14T02:44:01.313Z,100842.81
2022-10-14T02:46:30.546Z,100837.59
2022-10-14T02:48:58.396Z,100838.66
2022-10-14T02:51:26.182Z,100839.28
2022-10-14T02:53:53.903Z,100844.34
2022-10-14T02:56:22.581Z,100837.25
2022-10-14T02:58:50.266Z,100838.28
2022-10-14T03:01:17.959Z,100838.06
2022-10-14T03:03:46.978Z,100826.97
2022-10-14T03:06:14.663Z,100832.63
2022-10-14T03:08:42.466Z,100830.34
2022-10-14T03:11:10.253Z,100836.19
2022-10-14T03:13:37.932Z,100835.75
2022-10-14T03:16:06.217Z,100830.72
2022-10-14T03:18:33.915Z,100826.13
2022-10-14T03:21:02.958Z,100830.28
2022-10-14T03:23:30.604Z,100826.53
2022-10-14T03:25:58.271Z,100826.13
2022-10-14T03:28:25.977Z,100828.00
2022-10-14T03:30:53.710Z,100823.16
2022-10-14T03:33:24.520Z,100817.91
2022-10-14T03:35:56.149Z,100818.34
2022-10-14T03:38:25.578Z,100818.56
2022-10-14T03:40:53.395Z,100817.91
2022-10-14T03:43:21.069Z,100828.81
2022-10-14T03:45:48.844Z,100812.66
2022-10-14T03:48:16.569Z,100819.34
2022-10-14T03:50:44.231Z,100814.75
2022-10-14T03:53:12.786Z,100816.41
2022-10-14T03:55:41.790Z,100810.53
2022-10-14T03:58:11.747Z,100814.72
2022-10-14T04:00:39.440Z,100815.13
2022-10-14T04:03:07.124Z,100808.88
2022-10-14T04:05:34.862Z,100810.31
2022-10-14T04:08:03.030Z,100810.09
2022-10-14T04:10:31.075Z,100809.28
2022-10-14T04:13:00.203Z,100814.28
2022-10-14T04:15:27.909Z,100810.72
2022-10-14T04:17:56.712Z,100818.03
2022-10-14T04:20:24.387Z,100820.38
2022-10-14T04:22:52.078Z,100814.34
2022-10-14T04:25:19.866Z,100813.53
2022-10-14T04:27:47.485Z,100811.88
2022-10-14T04:30:16.503Z,100811.50
2022-10-14T04:32:44.157Z,100809.22
2022-10-14T04:35:11.807Z,100814.25
2022-10-14T04:37:39.487Z,100819.69
2022-10-14T04:40:07.875Z,100804.81
2022-10-14T04:42:35.626Z,100811.50
2022-10-14T04:45:03.355Z,100812.53
2022-10-14T04:47:32.305Z,100804.78
2022-10-14T04:50:00.169Z,100804.13
2022-10-14T04:52:27.837Z,100803.53
2022-10-14T04:54:55.671Z,100804.31
2022-10-14T04:57:23.346Z,100799.06
2022-10-14T04:59:51.097Z,100800.28
2022-10-14T05:02:18.899Z,100788.56
2022-10-14T05:04:48.059Z,100792.28
2022-10-14T05:07:16.391Z,100796.00
2022-10-14T05:09:48.564Z,100789.97
2022-10-14T05:12:17.918Z,100779.72
2022-10-14T05:14:45.784Z,100782.06
2022-10-14T05:17:13.453Z,100784.16
2022-10-14T05:19:41.105Z,100787.91
2022-10-14T05:22:10.174Z,100788.78
2022-10-14T05:24:37.856Z,100778.72
2022-10-14T05:27:05.583Z,100780.38
2022-10-14T05:29:33.332Z,100787.50
2022-10-14T05:32:01.302Z,100787.91
2022-10-14T05:34:29.052Z,100794.25
2022-10-14T05:36:56.782Z,100800.75
2022-10-14T05:39:25.857Z,100798.47
2022-10-14T05:41:55.604Z,100803.06
2022-10-14T05:44:23.242Z,100803.50
2022-10-14T05:46:50.935Z,100799.31
2022-10-14T05:49:18.702Z,100794.91
2022-10-14T05:51:46.644Z,100794.31
2022-10-14T05:54:14.590Z,100793.72
2022-10-14T05:56:43.648Z,100793.94
2022-10-14T05:59:12.021Z,100782.63
2022-10-14T06:01:43.088Z,100784.69
2022-10-14T06:04:18.245Z,100792.22
2022-10-14T06:06:46.123Z,100788.88
2022-10-14T06:09:14.851Z,100789.47
2022-10-14T06:11:43.935Z,100795.56
2022-10-14T06:14:11.671Z,100792.66
2022-10-14T06:16:39.529Z,100790.97
2022-10-14T06:19:07.569Z,100787.44
2022-10-14T06:21:35.225Z,100787.19
2022-10-14T06:24:02.874Z,100784.84
2022-10-14T06:26:30.563Z,100791.16
2022-10-14T06:28:59.770Z,100786.31
2022-10-14T06:31:32.045Z,100788.88
2022-10-14T06:34:00.432Z,100785.53
2022-10-14T06:36:28.125Z,100784.69
2022-10-14T06:38:55.825Z,100778.38
2022-10-14T06:41:23.927Z,100781.91
2022-10-14T06:43:51.754Z,100785.28
2022-10-14T06:46:20.785Z,100787.38
2022-10-14T06:48:50.505Z,100787.16
2022-10-14T06:51:18.405Z,100783.56
2022-10-14T06:53:46.088Z,100782.13
2022-10-14T06:56:13.777Z,100784.84
2022-10-14T06:58:41.448Z,100786.75
2022-10-14T07:01:09.877Z,100788.44
2022-10-14T07:03:39.304Z,100778.38
2022-10-14T07:06:08.798Z,100785.50
2022-10-14T07:08:37.017Z,100793.66
2022-10-14T07:11:06.095Z,100798.28
2022-10-14T07:13:35.104Z,100790.13
2022-10-14T07:16:03.234Z,100789.69
2022-10-14T07:18:31.317Z,100788.88
2022-10-14T07:21:04.494Z,100792.00
2022-10-14T07:23:32.571Z,100785.72
2022-10-14T07:26:01.265Z,100784.84
2022-10-14T07:28:29.226Z,100796.16
2022-10-14T07:31:01.741Z,100793.63
2022-10-14T07:33:29.837Z,100787.72
2022-10-14T07:36:03.801Z,100783.97
2022-10-14T07:38:32.191Z,100790.22
2022-10-14T07:41:03.142Z,100789.34
2022-10-14T07:43:32.306Z,100787.03
2022-10-14T07:46:02.697Z,100786.38
2022-10-14T07:48:32.962Z,100787.47
2022-10-14T07:51:14.475Z,100790.19
2022-10-14T07:53:42.229Z,100788.09
2022-10-14T07:56:09.985Z,100793.38
2022-10-14T07:58:42.212Z,100793.53
2022-10-14T08:01:12.199Z,100789.56
2022-10-14T08:03:41.379Z,100795.00
2022-10-14T08:06:09.727Z,100790.41
2022-10-14T08:08:39.686Z,100794.41
2022-10-14T08:11:11.578Z,100794.81
2022-10-14T08:13:43.321Z,100798.41
2022-10-14T08:16:16.421Z,100791.88
2022-10-14T08:18:44.566Z,100787.78
2022-10-14T08:21:12.571Z,100773.94
2022-10-14T08:23:41.570Z,100775.53
2022-10-14T08:26:19.910Z,100772.41
2022-10-14T08:28:47.867Z,100771.94
2022-10-14T08:31:15.665Z,100765.22
2022-10-14T08:33:43.411Z,100753.47
2022-10-14T08:36:11.494Z,100765.41
2022-10-14T08:38:41.695Z,100760.63
2022-10-14T08:41:25.949Z,100755.13
2022-10-14T08:44:06.593Z,100754.44
2022-10-14T08:46:39.364Z,100754.03
2022-10-14T08:49:14.668Z,100745.63
2022-10-14T08:51:46.092Z,100744.53
2022-10-14T08:54:23.286Z,100743.13
2022-10-14T08:56:51.071Z,100739.31
2022-10-14T08:59:21.579Z,100737.97
2022-10-14T09:01:52.921Z,100740.28
2022-10-14T09:04:21.382Z,100735.16
2022-10-14T09:06:51.210Z,100726.59
2022-10-14T09:09:25.392Z,100727.25
2022-10-14T09:11:57.822Z,100724.25
2022-10-14T09:14:31.193Z,100732.84
2022-10-14T09:17:04.643Z,100726.97
2022-10-14T09:19:35.392Z,100730.81
2022-10-14T09:22:03.105Z,100732.97
2022-10-14T09:24:36.265Z,100732.31
2022-10-14T09:27:06.701Z,100734.63
2022-10-14T09:29:43.132Z,100736.28
2022-10-14T09:32:16.982Z,100739.78
2022-10-14T09:34:48.661Z,100736.00
2022-10-14T09:37:26.462Z,100741.31
2022-10-14T09:40:00.711Z,100728.66
2022-10-14T09:42:41.640Z,100731.25
2022-10-14T09:45:12.765Z,100735.28
2022-10-14T09:47:47.170Z,100731.72
2022-10-14T09:50:26.992Z,100722.19
2022-10-14T09:53:01.412Z,100730.22
2022-10-14T09:55:31.224Z,100731.50
2022-10-14T09:58:05.160Z,100713.94
2022-10-14T10:00:36.716Z,100718.91
2022-10-14T10:03:05.786Z,100714.97
2022-10-14T10:05:35.282Z,100711.34
2022-10-14T10:08:16.090Z,100712.94
2022-10-14T10:11:02.126Z,100698.41
2022-10-14T10:13:45.407Z,100696.03
2022-10-14T10:16:22.305Z,100692.22
2022-10-14T10:18:51.780Z,100682.75
2022-10-14T10:21:24.769Z,100686.34
2022-10-14T10:23:58.266Z,100687.69
2022-10-14T10:26:31.942Z,100682.31
2022-10-14T10:29:02.443Z,100677.84
2022-10-14T10:31:53.091Z,100672.81
2022-10-14T10:34:40.439Z,100671.63
2022-10-14T10:37:26.759Z,100673.31
2022-10-14T10:40:09.848Z,100661.47
2022-10-14T10:42:51.363Z,100660.53
2022-10-14T10:45:35.564Z,100658.53
2022-10-14T10:48:12.671Z,100657.81
2022-10-14T10:50:48.406Z,100659.66
2022-10-14T10:53:30.666Z,100644.22
2022-10-14T10:56:21.730Z,100644.59
2022-10-14T10:59:06.377Z,100638.66
2022-10-14T11:01:41.244Z,100634.63
2022-10-14T11:04:23.073Z,100633.22
2022-10-14T11:07:15.761Z,100636.03
2022-10-14T11:10:13.235Z,100635.53
2022-10-14T11:12:53.525Z,100645.66
2022-10-14T11:15:31.532Z,100633.94
2022-10-14T11:18:05.236Z,100631.22
2022-10-14T11:20:43.686Z,100625.88
2022-10-14T11:23:35.765Z,100614.38
2022-10-14T11:26:10.879Z,100619.69
2022-10-14T11:28:46.977Z,100606.06
2022-10-14T11:31:29.751Z,100607.34
2022-10-14T11:34:12.831Z,100603.56
2022-10-14T11:36:52.115Z,100597.03
2022-10-14T11:39:31.957Z,100595.94
2022-10-14T11:42:14.644Z,100597.13
2022-10-14T11:44:44.017Z,100595.72
2022-10-14T11:47:22.152Z,100594.75
2022-10-14T11:49:57.253Z,100589.88
2022-10-14T11:52:29.343Z,100588.94
2022-10-14T11:55:03.962Z,100594.22
2022-10-14T11:57:36.512Z,100589.59
2022-10-14T12:00:24.362Z,100598.97
2022-10-14T12:02:59.536Z,100594.44
2022-10-14T12:05:38.047Z,100595.41
2022-10-14T12:08:16.087Z,100590.41
2022-10-14T12:10:47.455Z,100586.38
2022-10-14T12:13:18.646Z,100597.00
2022-10-14T12:15:51.295Z,100585.59
2022-10-14T12:18:20.416Z,100586.53
2022-10-14T12:20:56.296Z,100585.00
2022-10-14T12:23:32.790Z,100571.00
2022-10-14T12:26:07.888Z,100571.34
2022-10-14T12:28:40.632Z,100569.47
2022-10-14T12:31:22.386Z,100565.41
2022-10-14T12:34:28.552Z,100552.31
2022-10-14T12:36:56.274Z,100562.56
2022-10-14T12:39:33.155Z,100557.34
2022-10-14T12:42:04.103Z,100556.97
2022-10-14T12:44:43.680Z,100553.75
2022-10-14T12:47:21.678Z,100554.81
2022-10-14T12:49:54.520Z,100554.00
2022-10-14T12:52:26.472Z,100557.78
2022-10-14T12:54:54.978Z,100558.63
2022-10-14T12:57:29.582Z,100548.88
2022-10-14T13:00:00.589Z,100543.53
2022-10-14T13:02:33.359Z,100548.25
2022-10-14T13:05:06.289Z,100539.81
2022-10-14T13:07:44.230Z,100535.44
2022-10-14T13:10:46.975Z,100528.66
2022-10-14T13:13:53.603Z,100532.81
2022-10-14T13:16:56.341Z,100528.06
2022-10-14T13:19:46.983Z,100521.53
2022-10-14T13:22:41.063Z,100510.81
2022-10-14T13:25:16.669Z,100508.06
2022-10-14T13:27:55.572Z,100503.78
2022-10-14T13:30:34.147Z,100501.59
2022-10-14T13:33:13.488Z,100486.53
2022-10-14T13:35:49.925Z,100480.22
2022-10-14T13:38:20.616Z,100482.63
2022-10-14T13:40:50.883Z,100488.94
2022-10-14T13:43:22.254Z,100476.72
2022-10-14T13:45:54.171Z,100474.72
2022-10-14T13:48:28.881Z,100469.75
2022-10-14T13:51:24.405Z,100462.38
2022-10-14T13:54:14.987Z,100465.09
2022-10-14T13:56:43.030Z,100456.91
2022-10-14T13:59:43.258Z,100444.91
2022-10-14T14:02:15.483Z,100446.81
2022-10-14T14:04:51.527Z,100446.81
2022-10-14T14:07:47.661Z,100445.25
2022-10-14T14:10:19.964Z,100447.97
2022-10-14T14:12:48.103Z,100455.84
2022-10-14T14:15:23.184Z,100445.72
2022-10-14T14:17:50.835Z,100441.91
2022-10-14T14:20:22.498Z,100436.44
2022-10-14T14:22:51.157Z,100439.94
2022-10-14T14:25:35.312Z,100425.16
2022-10-14T14:28:06.885Z,100423.28
2022-10-14T14:30:36.784Z,100421.63
2022-10-14T14:33:08.242Z,100431.84
2022-10-14T14:35:36.089Z,100414.06
2022-10-14T14:38:04.229Z,100404.47
2022-10-14T14:40:33.449Z,100403.13
2022-10-14T14:43:03.943Z,100399.31
2022-10-14T14:45:44.860Z,100400.88
2022-10-14T14:48:16.442Z,100403.25
2022-10-14T14:50:45.757Z,100392.94
2022-10-14T14:53:18.222Z,100398.41
2022-10-14T14:56:00.504Z,100390.69
2022-10-14T14:58:33.634Z,100396.41
2022-10-14T15:01:01.538Z,100390.59
2022-10-14T15:03:32.924Z,100387.38
2022-10-14T15:06:02.389Z,100388.44
2022-10-14T15:08:32.679Z,100386.78
2022-10-14T15:11:02.021Z,100373.03
2022-10-14T15:13:33.596Z,100371.38
2022-10-14T15:16:01.432Z,100376.09
2022-10-14T15:18:30.409Z,100370.63
2022-10-14T15:21:07.143Z,100357.56
2022-10-14T15:23:41.176Z,100358.63
2022-10-14T15:26:31.605Z,100362.22
2022-10-14T15:29:12.259Z,100359.47
2022-10-14T15:31:41.580Z,100357.47
2022-10-14T15:34:18.465Z,100353.56
2022-10-14T15:36:47.011Z,100349.16
2022-10-14T15:39:14.785Z,100354.38
2022-10-14T15:41:45.285Z,100353.81
2022-10-14T15:44:13.149Z,100354.53
2022-10-14T15:47:01.565Z,100352.41
2022-10-14T15:49:31.843Z,100360.59
2022-10-14T15:51:59.671Z,100352.66
2022-10-14T15:54:27.624Z,100359.19
2022-10-14T15:56:58.079Z,100346.03
2022-10-14T15:59:26.815Z,100336.16
2022-10-14T16:01:54.713Z,100342.69
2022-10-14T16:04:25.618Z,100332.00
2022-10-14T16:06:55.403Z,100334.16
2022-10-14T16:09:23.517Z,100332.00
2022-10-14T16:11:57.572Z,100332.00
2022-10-14T16:14:27.852Z,100329.28
2022-10-14T16:16:56.584Z,100330.94
2022-10-14T16:19:30.670Z,100328.44
2022-10-14T16:21:58.723Z,100316.44
2022-10-14T16:24:26.600Z,100317.28
2022-10-14T16:26:54.946Z,100321.91
2022-10-14T16:29:22.903Z,100315.53
2022-10-14T16:31:52.610Z,100317.19
2022-10-14T16:34:22.487Z,100312.81
2022-10-14T16:36:51.317Z,100314.13
2022-10-14T16:39:20.825Z,100313.50
2022-10-14T16:41:49.563Z,100319.22
2022-10-14T16:44:25.346Z,100320.63
2022-10-14T16:47:13.436Z,100320.63
2022-10-14T16:49:41.599Z,100308.66
2022-10-14T16:52:09.749Z,100315.19
2022-10-14T16:54:37.818Z,100313.50
2022-10-14T16:57:06.378Z,100297.63
2022-10-14T16:59:34.341Z,100301.53
2022-10-14T17:02:04.274Z,100307.69
2022-10-14T17:04:31.976Z,100306.38
2022-10-14T17:07:06.906Z,100300.16
2022-10-14T17:09:35.806Z,100300.06
2022-10-14T17:12:06.797Z,100291.53
2022-10-14T17:14:37.513Z,100303.19
2022-10-14T17:17:06.574Z,100302.03
2022-10-14T17:19:34.254Z,100303.91
2022-10-14T17:22:03.302Z,100308.31
2022-10-14T17:24:31.490Z,100302.53
2022-10-14T17:26:59.204Z,100301.44
2022-10-14T17:29:28.517Z,100297.63
2022-10-14T17:31:56.283Z,100291.81
2022-10-14T17:34:25.376Z,100294.78
2022-10-14T17:36:53.346Z,100297.19
2022-10-14T17:39:27.467Z,100292.22
2022-10-14T17:41:57.607Z,100294.94
2022-10-14T17:44:25.649Z,100289.88
2022-10-14T17:46:54.501Z,100287.97
2022-10-14T17:49:22.242Z,100285.22
2022-10-14T17:51:51.316Z,100282.50
2022-10-14T17:54:19.001Z,100279.53
2022-10-14T17:56:46.667Z,100276.22
2022-10-14T17:59:14.496Z,100270.16
2022-10-14T18:02:02.548Z,100269.81
2022-10-14T18:04:30.186Z,100264.34
2022-10-14T18:06:59.517Z,100261.38
2022-10-14T18:09:27.457Z,100258.19
2022-10-14T18:12:10.756Z,100254.31
2022-10-14T18:14:38.764Z,100244.44
2022-10-14T18:17:06.682Z,100250.75
2022-10-14T18:19:34.835Z,100250.97
2022-10-14T18:22:04.041Z,100250.97
2022-10-14T18:24:32.265Z,100245.75
2022-10-14T18:27:00.216Z,100241.63
2022-10-14T18:29:27.958Z,100236.66
2022-10-14T18:31:55.612Z,100237.16
2022-10-14T18:34:25.295Z,100238.56
2022-10-14T18:36:52.971Z,100244.72
2022-10-14T18:39:22.026Z,100241.91
2022-10-14T18:41:49.882Z,100244.06
2022-10-14T18:44:17.684Z,100244.88
2022-10-14T18:46:47.405Z,100234.22
2022-10-14T18:49:15.425Z,100235.88
2022-10-14T18:51:43.273Z,100235.28
2022-10-14T18:54:15.145Z,100228.16
2022-10-14T18:56:45.418Z,100228.25
2022-10-14T18:59:15.990Z,100222.53
2022-10-14T19:01:45.694Z,100224.03
2022-10-14T19:04:16.146Z,100217.28
2022-10-14T19:06:45.773Z,100216.56
2022-10-14T19:09:13.859Z,100218.44
2022-10-14T19:11:42.299Z,100224.13
2022-10-14T19:14:13.047Z,100217.38
2022-10-14T19:16:40.836Z,100216.88
2022-10-14T19:19:11.625Z,100216.88
2022-10-14T19:21:39.871Z,100212.16
2022-10-14T19:24:09.045Z,100216.69
2022-10-14T19:26:39.159Z,100203.41
2022-10-14T19:29:11.466Z,100200.38
2022-10-14T19:31:41.754Z,100200.59
2022-10-14T19:34:12.543Z,100204.41
2022-10-14T19:36:41.551Z,100201.69
2022-10-14T19:39:12.532Z,100198.09
2022-10-14T19:41:43.265Z,100198.34
2022-10-14T19:44:11.534Z,100208.69
2022-10-14T19:46:41.080Z,100195.88
2022-10-14T19:49:08.841Z,100200.41
2022-10-14T19:51:36.958Z,100194.97
2022-10-14T19:54:05.080Z,100188.66
2022-10-14T19:56:32.767Z,100187.34
2022-10-14T19:59:01.649Z,100189.59
2022-10-14T20:01:31.125Z,100178.69
2022-10-14T20:04:02.935Z,100178.09
2022-10-14T20:06:33.220Z,100174.31
2022-10-14T20:09:01.361Z,100168.00
2022-10-14T20:11:29.640Z,100161.38
2022-10-14T20:13:57.625Z,100162.22
2022-10-14T20:16:26.274Z,100172.53
2022-10-14T20:18:54.123Z,100169.47
2022-10-14T20:21:23.601Z,100160.97
2022-10-14T20:23:51.320Z,100156.56
2022-10-14T20:26:21.406Z,100155.16
2022-10-14T20:28:49.373Z,100151.94
2022-10-14T20:31:19.059Z,100147.78
2022-10-14T20:33:47.443Z,100142.31
2022-10-14T20:36:16.955Z,100125.97
2022-10-14T20:38:47.143Z,100128.44
2022-10-14T20:41:17.696Z,100143.44
2022-10-14T20:43:46.451Z,100146.16
2022-10-14T20:46:15.103Z,100138.78
2022-10-14T20:48:43.244Z,100148.38
2022-10-14T20:51:13.163Z,100136.88
2022-10-14T20:56:15.236Z,100138.53
2022-10-14T20:58:43.028Z,100146.16
2022-10-14T21:01:13.058Z,100138.03
2022-10-14T21:03:42.073Z,100131.13
2022-10-14T21:06:11.615Z,100126.13
2022-10-14T21:08:40.401Z,100132.16
2022-10-14T21:11:14.080Z,100131.00
2022-10-14T21:13:47.054Z,100133.84
2022-10-14T21:16:17.076Z,100137.91
2022-10-14T21:18:48.215Z,100129.16
2022-10-14T21:21:16.991Z,100122.88
2022-10-14T21:23:46.867Z,100121.13
2022-10-14T21:26:14.989Z,100117.22
2022-10-14T21:28:43.171Z,100123.00
2022-10-14T21:31:17.349Z,100118.13
2022-10-14T21:33:46.982Z,100109.94
2022-10-14T21:36:16.655Z,100112.44
2022-10-14T21:38:44.809Z,100106.97
2022-10-14T21:41:12.642Z,100107.47
2022-10-14T21:43:40.757Z,100097.88
2022-10-14T21:46:10.490Z,100107.47
2022-10-14T21:48:40.184Z,100113.75
2022-10-14T21:51:10.269Z,100121.13
2022-10-14T21:53:38.648Z,100119.19
2022-10-14T21:56:07.105Z,100115.66
2022-10-14T21:58:34.961Z,100105.97
2022-10-14T22:01:05.656Z,100095.88
2022-10-14T22:03:33.856Z,100098.94
2022-10-14T22:08:35.547Z,100097.06
2022-10-14T22:11:03.887Z,100094.81
2022-10-14T22:13:32.385Z,100095.41
2022-10-14T22:16:00.420Z,100095.31
2022-10-14T22:18:28.399Z,100096.38
2022-10-14T22:21:01.613Z,100094.84
2022-10-14T22:23:30.681Z,100098.78
2022-10-14T22:26:00.372Z,100102.59
2022-10-14T22:28:28.670Z,100098.69
2022-10-14T22:30:57.672Z,100094.88
2022-10-14T22:33:25.372Z,100101.19
2022-10-14T22:35:53.056Z,100100.34
2022-10-14T22:38:21.781Z,100087.88
2022-10-14T22:40:50.720Z,100095.00
2022-10-14T22:43:18.391Z,100090.59
2022-10-14T22:45:46.160Z,100085.75
2022-10-14T22:48:14.033Z,100086.56
2022-10-14T22:50:41.822Z,100088.59
2022-10-14T22:53:09.506Z,100090.47
2022-10-14T22:55:37.151Z,100093.69
2022-10-14T22:58:06.162Z,100095.34
2022-10-14T23:00:34.291Z,100098.06
2022-10-14T23:03:02.095Z,100092.03
2022-10-14T23:05:30.605Z,100091.56
2022-10-14T23:07:58.279Z,100098.63
2022-10-14T23:10:25.906Z,100093.53
2022-10-14T23:12:53.682Z,100101.81
2022-10-14T23:15:22.663Z,100104.31
2022-10-14T23:17:50.309Z,100101.00
2022-10-14T23:20:18.178Z,100094.69
2022-10-14T23:22:45.893Z,100093.88
2022-10-14T23:25:13.844Z,100096.38
2022-10-14T23:27:41.516Z,100098.28
2022-10-14T23:30:10.138Z,100094.94
2022-10-14T23:32:39.242Z,100094.13
2022-10-14T23:35:07.501Z,100093.88
2022-10-14T23:37:35.147Z,100095.56
2022-10-14T23:40:04.692Z,100093.63
2022-10-14T23:42:32.328Z,100097.19
2022-10-14T23:44:59.995Z,100106.09
2022-10-14T23:47:27.664Z,100109.09
2022-10-14T23:49:56.634Z,100098.19
2022-10-14T23:52:24.425Z,100105.50
2022-10-14T23:54:52.090Z,100099.47
2022-10-14T23:57:20.639Z,100101.16
2022-10-14T23:59:48.535Z,100109.91
